createdAt,value
2022-11-25T00:01:38.207Z,-0.31
2022-11-25T00:04:04.918Z,-0.29
2022-11-25T00:06:32.705Z,-0.31
2022-11-25T00:09:00.376Z,-0.38
2022-11-25T00:11:27.549Z,-0.42
2022-11-25T00:13:55.169Z,-0.42
2022-11-25T00:16:22.905Z,-0.45
2022-11-25T00:18:50.701Z,-0.47
2022-11-25T00:21:18.698Z,-0.43
2022-11-25T00:23:45.386Z,-0.48
2022-11-25T00:26:15.625Z,-0.51
2022-11-25T00:28:43.102Z,-0.53
2022-11-25T00:31:14.208Z,-0.43
2022-11-25T00:33:41.330Z,-0.43
2022-11-25T00:36:14.438Z,-0.43
2022-11-25T00:38:40.951Z,-0.41
2022-11-25T00:41:25.964Z,-0.41
2022-11-25T00:44:11.251Z,-0.43
2022-11-25T00:46:37.746Z,-0.38
2022-11-25T00:49:04.302Z,-0.40
2022-11-25T00:51:30.821Z,-0.42
2022-11-25T00:53:59.048Z,-0.42
2022-11-25T00:56:25.822Z,-0.44
2022-11-25T00:58:53.047Z,-0.43
2022-11-25T01:01:19.717Z,-0.49
2022-11-25T01:03:48.667Z,-0.52
2022-11-25T01:06:15.170Z,-0.53
2022-11-25T01:08:41.650Z,-0.57
2022-11-25T01:11:10.305Z,-0.65
2022-11-25T01:13:37.108Z,-0.71
2022-11-25T01:16:07.525Z,-0.73
2022-11-25T01:18:34.102Z,-0.77
2022-11-25T01:21:33.176Z,-0.78
2022-11-25T01:24:01.559Z,-0.76
2022-11-25T01:26:29.244Z,-0.70
2022-11-25T01:28:57.252Z,-0.69
2022-11-25T01:31:25.053Z,-0.76
2022-11-25T01:34:03.416Z,-0.78
2022-11-25T01:36:30.058Z,-0.85
2022-11-25T01:38:57.583Z,-0.86
2022-11-25T01:41:25.298Z,-0.83
2022-11-25T01:44:06.950Z,-0.89
2022-11-25T01:46:45.189Z,-0.91
2022-11-25T01:49:37.930Z,-0.94
2022-11-25T01:52:04.387Z,-0.93
2022-11-25T01:54:33.708Z,-0.92
2022-11-25T01:57:03.930Z,-0.93
2022-11-25T01:59:31.022Z,-0.93
2022-11-25T02:01:58.756Z,-0.89
2022-11-25T02:04:28.458Z,-0.90
2022-11-25T02:06:57.589Z,-0.94
2022-11-25T02:09:25.114Z,-1.02
2022-11-25T02:11:51.872Z,-1.05
2022-11-25T02:14:20.580Z,-1.07
2022-11-25T02:16:47.200Z,-0.94
2022-11-25T02:19:22.539Z,-0.97
2022-11-25T02:21:52.398Z,-1.03
2022-11-25T02:24:23.559Z,-1.08
2022-11-25T02:26:50.074Z,-1.11
2022-11-25T02:29:16.643Z,-1.10
2022-11-25T02:31:43.963Z,-1.10
2022-11-25T02:34:10.687Z,-1.10
2022-11-25T02:36:37.502Z,-1.09
2022-11-25T02:39:04.573Z,-1.11
2022-11-25T02:41:32.792Z,-1.10
2022-11-25T02:43:59.683Z,-1.15
2022-11-25T02:46:27.767Z,-1.14
2022-11-25T02:49:11.399Z,-1.16
2022-11-25T02:51:39.329Z,-1.15
2022-11-25T02:54:05.908Z,-1.14
2022-11-25T02:56:33.366Z,-1.14
2022-11-25T02:58:59.935Z,-1.15
2022-11-25T03:01:26.597Z,-1.19
2022-11-25T03:03:53.326Z,-1.21
2022-11-25T03:06:19.809Z,-1.19
2022-11-25T03:08:46.263Z,-1.18
2022-11-25T03:11:12.785Z,-1.21
2022-11-25T03:13:39.257Z,-1.22
2022-11-25T03:16:05.945Z,-1.19
2022-11-25T03:18:32.597Z,-1.14
2022-11-25T03:20:59.147Z,-1.17
2022-11-25T03:23:25.835Z,-1.21
2022-11-25T03:25:52.423Z,-1.21
2022-11-25T03:28:18.940Z,-1.23
2022-11-25T03:30:45.485Z,-1.34
2022-11-25T03:33:11.994Z,-1.48
2022-11-25T03:35:38.471Z,-1.51
2022-11-25T03:38:05.119Z,-1.56
2022-11-25T03:40:31.612Z,-1.51
2022-11-25T03:42:58.108Z,-1.52
2022-11-25T03:45:24.796Z,-1.51
2022-11-25T03:47:51.336Z,-1.48
2022-11-25T03:50:17.880Z,-1.45
2022-11-25T03:52:44.381Z,-1.47
2022-11-25T03:55:13.030Z,-1.51
2022-11-25T03:57:39.922Z,-1.50
2022-11-25T04:00:06.859Z,-1.47
2022-11-25T04:02:33.401Z,-1.51
2022-11-25T04:04:59.998Z,-1.56
2022-11-25T04:07:26.520Z,-1.60
2022-11-25T04:09:53.292Z,-1.67
2022-11-25T04:12:38.108Z,-1.70
2022-11-25T04:15:04.850Z,-1.73
2022-11-25T04:17:31.442Z,-1.71
2022-11-25T04:19:57.923Z,-1.71
2022-11-25T04:22:24.422Z,-1.68
2022-11-25T04:24:50.981Z,-1.68
2022-11-25T04:27:19.266Z,-1.74
2022-11-25T04:29:46.901Z,-1.80
2022-11-25T04:32:13.508Z,-1.78
2022-11-25T04:34:40.552Z,-1.76
2022-11-25T04:37:07.047Z,-1.75
2022-11-25T04:39:33.580Z,-1.88
2022-11-25T04:42:18.419Z,-1.90
2022-11-25T04:45:01.027Z,-1.88
2022-11-25T04:47:32.162Z,-1.84
2022-11-25T04:49:59.025Z,-1.83
2022-11-25T04:52:25.675Z,-1.81
2022-11-25T04:54:52.160Z,-1.90
2022-11-25T04:57:18.780Z,-1.93
2022-11-25T04:59:45.643Z,-1.98
2022-11-25T05:02:17.654Z,-1.98
2022-11-25T05:04:44.948Z,-1.90
2022-11-25T05:07:11.832Z,-1.89
2022-11-25T05:09:38.578Z,-1.87
2022-11-25T05:12:06.307Z,-1.89
2022-11-25T05:14:32.977Z,-1.84
2022-11-25T05:16:59.634Z,-1.86
2022-11-25T05:19:26.187Z,-1.80
2022-11-25T05:21:52.680Z,-1.79
2022-11-25T05:24:19.515Z,-1.83
2022-11-25T05:26:46.006Z,-1.86
2022-11-25T05:29:12.586Z,-1.84
2022-11-25T05:31:39.269Z,-1.88
2022-11-25T05:34:05.765Z,-1.90
2022-11-25T05:36:32.373Z,-1.93
2022-11-25T05:38:59.341Z,-1.95
2022-11-25T05:41:26.317Z,-1.89
2022-11-25T05:43:53.031Z,-1.87
2022-11-25T05:46:20.454Z,-1.89
2022-11-25T05:48:47.028Z,-1.90
2022-11-25T05:51:13.539Z,-1.87
2022-11-25T05:53:40.052Z,-1.87
2022-11-25T05:56:07.192Z,-1.87
2022-11-25T05:58:33.742Z,-1.87
2022-11-25T06:01:00.242Z,-1.87
2022-11-25T06:03:27.566Z,-1.87
2022-11-25T06:05:57.752Z,-1.83
2022-11-25T06:08:24.384Z,-1.73
2022-11-25T06:10:50.910Z,-1.76
2022-11-25T06:13:17.704Z,-1.77
2022-11-25T06:15:45.213Z,-1.79
2022-11-25T06:18:12.286Z,-1.82
2022-11-25T06:20:39.053Z,-1.88
2022-11-25T06:23:06.082Z,-1.91
2022-11-25T06:25:32.750Z,-1.91
2022-11-25T06:28:14.740Z,-1.90
2022-11-25T06:30:41.249Z,-1.90
2022-11-25T06:33:07.720Z,-1.91
2022-11-25T06:35:34.278Z,-1.90
2022-11-25T06:38:00.836Z,-1.89
2022-11-25T06:40:27.350Z,-1.98
2022-11-25T06:42:53.874Z,-2.01
2022-11-25T06:45:20.419Z,-2.03
2022-11-25T06:47:46.945Z,-1.98
2022-11-25T06:50:13.479Z,-1.93
2022-11-25T06:52:39.993Z,-1.95
2022-11-25T06:55:06.595Z,-1.94
2022-11-25T06:57:33.083Z,-1.95
2022-11-25T06:59:59.666Z,-1.60
2022-11-25T07:02:26.245Z,-1.13
2022-11-25T07:04:53.899Z,-0.59
2022-11-25T07:07:20.484Z,-0.07
2022-11-25T07:09:47.691Z,0.40
2022-11-25T07:12:14.295Z,0.76
2022-11-25T07:14:40.817Z,1.18
2022-11-25T07:17:11.825Z,1.43
2022-11-25T07:19:38.644Z,1.44
2022-11-25T07:22:05.152Z,1.45
2022-11-25T07:24:31.622Z,1.51
2022-11-25T07:26:58.353Z,1.51
2022-11-25T07:32:11.648Z,1.57
2022-11-25T07:34:38.386Z,1.74
2022-11-25T07:37:04.845Z,1.77
2022-11-25T07:39:31.541Z,1.93
2022-11-25T07:41:58.026Z,1.96
2022-11-25T07:44:24.508Z,2.05
2022-11-25T07:46:51.899Z,2.09
2022-11-25T07:49:20.722Z,2.03
2022-11-25T07:51:59.253Z,2.05
2022-11-25T07:54:25.825Z,2.11
2022-11-25T07:56:52.428Z,2.22
2022-11-25T07:59:20.160Z,2.29
2022-11-25T08:01:48.746Z,2.31
2022-11-25T08:04:20.172Z,2.36
2022-11-25T08:06:48.441Z,2.34
2022-11-25T08:09:18.556Z,2.28
2022-11-25T08:11:45.504Z,2.16
2022-11-25T08:14:12.001Z,2.12
2022-11-25T08:16:38.674Z,2.02
2022-11-25T08:19:06.794Z,1.90
2022-11-25T08:21:33.527Z,1.85
2022-11-25T08:24:00.018Z,1.81
2022-11-25T08:26:27.798Z,1.75
2022-11-25T08:28:54.670Z,1.72
2022-11-25T08:31:22.846Z,1.73
2022-11-25T08:33:49.982Z,1.74
2022-11-25T08:36:16.650Z,1.82
2022-11-25T08:38:43.781Z,1.93
2022-11-25T08:41:14.437Z,1.97
2022-11-25T08:43:41.594Z,2.05
2022-11-25T08:46:12.794Z,2.07
2022-11-25T08:48:39.873Z,2.15
2022-11-25T08:51:14.202Z,2.19
2022-11-25T08:53:40.788Z,2.25
2022-11-25T08:56:07.662Z,2.28
2022-11-25T08:58:35.030Z,2.38
2022-11-25T09:01:01.818Z,2.36
2022-11-25T09:03:31.940Z,2.41
2022-11-25T09:05:58.487Z,2.46
2022-11-25T09:08:25.853Z,2.46
2022-11-25T09:10:52.409Z,2.38
2022-11-25T09:13:19.051Z,2.42
2022-11-25T09:15:45.618Z,2.47
2022-11-25T09:18:12.257Z,2.57
2022-11-25T09:20:39.700Z,2.66
2022-11-25T09:23:07.722Z,2.75
2022-11-25T09:25:34.956Z,2.82
2022-11-25T09:28:01.685Z,2.91
2022-11-25T09:30:28.236Z,2.97
2022-11-25T09:32:55.392Z,3.04
2022-11-25T09:35:22.779Z,3.14
2022-11-25T09:37:49.307Z,3.18
2022-11-25T09:40:20.621Z,3.11
2022-11-25T09:43:05.417Z,3.09
2022-11-25T09:46:02.547Z,3.11
2022-11-25T09:48:55.672Z,3.09
2022-11-25T09:51:25.045Z,3.12
2022-11-25T09:53:56.706Z,3.08
2022-11-25T09:56:31.725Z,3.16
2022-11-25T09:59:13.264Z,3.19
2022-11-25T10:01:46.228Z,3.18
2022-11-25T10:04:26.983Z,3.23
2022-11-25T10:06:55.909Z,3.27
2022-11-25T10:09:27.842Z,3.33
2022-11-25T10:12:06.180Z,3.54
2022-11-25T10:14:40.364Z,3.47
2022-11-25T10:17:09.622Z,3.43
2022-11-25T10:19:43.869Z,3.63
2022-11-25T10:22:20.678Z,3.72
2022-11-25T10:24:48.112Z,3.60
2022-11-25T10:27:47.266Z,3.57
2022-11-25T10:30:17.162Z,3.48
2022-11-25T10:32:46.611Z,3.46
2022-11-25T10:35:20.298Z,3.52
2022-11-25T10:37:47.953Z,3.54
2022-11-25T10:40:15.948Z,3.66
2022-11-25T10:42:42.995Z,3.72
2022-11-25T10:45:10.733Z,3.74
2022-11-25T10:47:45.053Z,3.73
2022-11-25T10:50:23.758Z,3.77
2022-11-25T10:53:25.613Z,3.91
2022-11-25T10:55:59.571Z,3.94
2022-11-25T10:58:30.910Z,4.18
2022-11-25T11:01:17.531Z,4.32
2022-11-25T11:03:51.270Z,4.47
2022-11-25T11:06:36.928Z,4.67
2022-11-25T11:09:04.105Z,4.82
2022-11-25T11:11:31.255Z,5.01
2022-11-25T11:14:18.000Z,5.14
2022-11-25T11:16:52.338Z,5.39
2022-11-25T11:19:26.307Z,5.59
2022-11-25T11:21:52.959Z,5.60
2022-11-25T11:24:45.805Z,5.69
2022-11-25T11:27:23.236Z,5.73
2022-11-25T11:30:04.227Z,5.72
2022-11-25T11:32:30.696Z,5.74
2022-11-25T11:35:00.527Z,5.63
2022-11-25T11:37:35.957Z,5.54
2022-11-25T11:40:22.192Z,5.51
2022-11-25T11:43:07.196Z,5.43
2022-11-25T11:45:41.413Z,5.35
2022-11-25T11:48:32.045Z,5.34
2022-11-25T11:51:13.413Z,5.28
2022-11-25T11:53:55.104Z,5.30
2022-11-25T11:56:40.047Z,5.38
2022-11-25T11:59:19.155Z,5.31
2022-11-25T12:01:58.465Z,5.21
2022-11-25T12:04:38.921Z,5.20
2022-11-25T12:07:07.661Z,5.09
2022-11-25T12:09:52.855Z,5.00
2022-11-25T12:12:19.631Z,5.08
2022-11-25T12:14:48.820Z,5.04
2022-11-25T12:17:32.480Z,4.87
2022-11-25T12:20:03.663Z,4.81
2022-11-25T12:22:34.233Z,4.74
2022-11-25T12:25:03.438Z,4.67
2022-11-25T12:27:41.678Z,4.58
2022-11-25T12:30:12.098Z,4.56
2022-11-25T12:32:41.450Z,4.69
2022-11-25T12:35:08.119Z,4.69
2022-11-25T12:37:37.956Z,4.55
2022-11-25T12:40:15.244Z,4.39
2022-11-25T12:42:42.420Z,4.25
2022-11-25T12:45:23.100Z,4.17
2022-11-25T12:47:50.151Z,4.08
2022-11-25T12:50:18.153Z,4.02
2022-11-25T12:52:50.508Z,4.01
2022-11-25T12:55:19.930Z,3.96
2022-11-25T12:57:55.401Z,3.90
2022-11-25T13:00:42.102Z,3.84
2022-11-25T13:03:24.534Z,3.81
2022-11-25T13:05:50.980Z,3.72
2022-11-25T13:08:29.607Z,3.66
2022-11-25T13:11:02.266Z,3.58
2022-11-25T13:13:46.113Z,3.52
2022-11-25T13:16:13.732Z,3.48
2022-11-25T13:18:42.922Z,3.48
2022-11-25T13:21:16.681Z,3.42
2022-11-25T13:23:49.337Z,3.35
2022-11-25T13:26:42.437Z,3.35
2022-11-25T13:29:12.028Z,3.23
2022-11-25T13:31:59.275Z,3.20
2022-11-25T13:34:26.213Z,3.16
2022-11-25T13:36:54.052Z,3.11
2022-11-25T13:39:23.653Z,3.08
2022-11-25T13:41:58.822Z,3.05
2022-11-25T13:44:28.393Z,3.04
2022-11-25T13:46:56.423Z,2.99
2022-11-25T13:49:27.056Z,2.94
2022-11-25T13:51:55.907Z,2.97
2022-11-25T13:54:25.691Z,2.96
2022-11-25T13:57:00.376Z,2.93
2022-11-25T13:59:49.324Z,2.92
2022-11-25T14:02:28.228Z,2.83
2022-11-25T14:05:18.982Z,2.80
2022-11-25T14:08:07.972Z,2.72
2022-11-25T14:10:37.436Z,2.73
2022-11-25T14:13:15.988Z,2.69
2022-11-25T14:16:06.486Z,2.62
2022-11-25T14:19:21.891Z,2.59
2022-11-25T14:21:38.475Z,2.63
2022-11-25T14:24:21.099Z,2.64
2022-11-25T14:26:51.581Z,2.63
2022-11-25T14:29:23.867Z,2.70
2022-11-25T14:32:01.005Z,2.61
2022-11-25T14:34:30.866Z,2.53
2022-11-25T14:37:01.409Z,2.45
2022-11-25T14:39:32.130Z,2.39
2022-11-25T14:42:09.867Z,2.33
2022-11-25T14:44:47.399Z,2.27
2022-11-25T14:47:13.870Z,2.28
2022-11-25T14:50:32.948Z,2.27
2022-11-25T14:52:37.316Z,2.17
2022-11-25T14:55:05.700Z,2.13
2022-11-25T14:57:41.671Z,2.16
2022-11-25T15:00:09.811Z,2.14
2022-11-25T15:02:37.491Z,2.14
2022-11-25T15:05:18.261Z,2.09
2022-11-25T15:07:54.299Z,2.08
2022-11-25T15:10:30.095Z,2.06
2022-11-25T15:12:56.763Z,2.03
2022-11-25T15:15:25.679Z,1.99
2022-11-25T15:17:55.180Z,1.95
2022-11-25T15:20:23.207Z,1.93
2022-11-25T15:22:51.267Z,1.93
2022-11-25T15:25:21.245Z,1.88
2022-11-25T15:27:53.075Z,1.86
2022-11-25T15:30:19.727Z,1.93
2022-11-25T15:32:46.705Z,1.87
2022-11-25T15:35:19.761Z,1.85
2022-11-25T15:37:46.514Z,1.81
2022-11-25T15:40:31.649Z,1.76
2022-11-25T15:42:59.570Z,1.77
2022-11-25T15:45:27.381Z,1.73
2022-11-25T15:47:54.004Z,1.64
2022-11-25T15:50:22.936Z,1.59
2022-11-25T15:52:51.696Z,1.56
2022-11-25T15:55:18.137Z,1.51
2022-11-25T15:57:49.264Z,1.48
2022-11-25T16:00:18.108Z,1.44
2022-11-25T16:02:44.639Z,1.41
2022-11-25T16:05:17.148Z,1.41
2022-11-25T16:07:52.931Z,1.41
2022-11-25T16:10:19.500Z,1.42
2022-11-25T16:13:06.253Z,1.40
2022-11-25T16:15:44.988Z,1.33
2022-11-25T16:18:32.808Z,1.38
2022-11-25T16:21:04.463Z,1.45
2022-11-25T16:23:34.097Z,1.42
2022-11-25T16:26:13.958Z,1.42
2022-11-25T16:28:42.032Z,1.41
2022-11-25T16:31:15.807Z,1.42
2022-11-25T16:33:42.738Z,1.43
2022-11-25T16:36:09.771Z,1.42
2022-11-25T16:38:36.450Z,1.40
2022-11-25T16:41:18.649Z,1.42
2022-11-25T16:43:45.719Z,1.41
2022-11-25T16:46:15.889Z,1.42
2022-11-25T16:48:42.485Z,1.40
2022-11-25T16:51:14.017Z,1.41
2022-11-25T16:53:40.516Z,1.40
2022-11-25T16:56:09.912Z,1.40
2022-11-25T16:58:36.438Z,1.40
2022-11-25T17:01:02.933Z,1.43
2022-11-25T17:03:29.649Z,1.49
2022-11-25T17:05:56.272Z,1.50
2022-11-25T17:08:22.901Z,1.46
2022-11-25T17:10:49.765Z,1.43
2022-11-25T17:13:19.592Z,1.45
2022-11-25T17:15:46.378Z,1.45
2022-11-25T17:18:14.804Z,1.40
2022-11-25T17:20:41.337Z,1.41
2022-11-25T17:23:12.133Z,1.45
2022-11-25T17:25:38.734Z,1.44
2022-11-25T17:28:05.409Z,1.41
2022-11-25T17:30:32.586Z,1.49
2022-11-25T17:33:06.520Z,1.51
2022-11-25T17:35:33.072Z,1.49
2022-11-25T17:38:00.255Z,1.48
2022-11-25T17:40:26.862Z,1.49
2022-11-25T17:42:53.461Z,1.52
2022-11-25T17:45:20.768Z,1.52
2022-11-25T17:47:47.508Z,1.46
2022-11-25T17:50:19.415Z,1.48
2022-11-25T17:52:45.960Z,1.49
2022-11-25T17:55:12.763Z,1.43
2022-11-25T17:57:39.577Z,1.47
2022-11-25T18:00:07.460Z,1.46
2022-11-25T18:02:34.066Z,1.51
2022-11-25T18:05:01.289Z,1.45
2022-11-25T18:07:28.004Z,1.46
2022-11-25T18:09:54.555Z,1.43
2022-11-25T18:12:28.860Z,1.45
2022-11-25T18:14:55.920Z,1.46
2022-11-25T18:17:22.623Z,1.45
2022-11-25T18:19:55.287Z,1.43
2022-11-25T18:22:23.659Z,1.45
2022-11-25T18:24:50.313Z,1.44
2022-11-25T18:27:24.960Z,1.42
2022-11-25T18:29:52.044Z,1.37
2022-11-25T18:32:18.709Z,1.36
2022-11-25T18:34:45.749Z,1.38
2022-11-25T18:37:12.618Z,1.33
2022-11-25T18:39:39.314Z,1.31
2022-11-25T18:42:06.728Z,1.31
2022-11-25T18:44:38.037Z,1.30
2022-11-25T18:47:05.843Z,1.31
2022-11-25T18:49:32.361Z,1.37
2022-11-25T18:51:58.838Z,1.33
2022-11-25T18:54:25.322Z,1.33
2022-11-25T18:56:52.553Z,1.38
2022-11-25T18:59:23.264Z,1.31
2022-11-25T19:01:50.178Z,1.28
2022-11-25T19:04:17.217Z,1.20
2022-11-25T19:06:44.515Z,1.27
2022-11-25T19:09:11.354Z,1.22
2022-11-25T19:11:47.148Z,1.17
2022-11-25T19:14:16.908Z,1.16
2022-11-25T19:16:44.037Z,1.17
2022-11-25T19:19:13.518Z,1.14
2022-11-25T19:21:40.047Z,1.13
2022-11-25T19:24:12.269Z,1.14
2022-11-25T19:26:41.882Z,1.11
2022-11-25T19:29:13.645Z,1.13
2022-11-25T19:31:40.517Z,1.12
2022-11-25T19:34:07.085Z,1.15
2022-11-25T19:36:35.132Z,1.13
2022-11-25T19:39:01.610Z,1.17
2022-11-25T19:41:28.134Z,1.18
2022-11-25T19:43:54.617Z,1.15
2022-11-25T19:46:46.242Z,1.16
2022-11-25T19:49:19.182Z,1.14
2022-11-25T19:51:46.529Z,1.17
2022-11-25T19:54:13.951Z,1.17
2022-11-25T19:56:41.300Z,1.18
2022-11-25T19:59:08.484Z,1.20
2022-11-25T20:01:37.427Z,1.18
2022-11-25T20:04:04.280Z,1.24
2022-11-25T20:06:31.429Z,1.21
2022-11-25T20:09:05.524Z,1.18
2022-11-25T20:11:36.599Z,1.14
2022-11-25T20:14:03.528Z,1.17
2022-11-25T20:16:32.828Z,1.12
2022-11-25T20:18:59.926Z,1.11
2022-11-25T20:21:29.803Z,1.10
2022-11-25T20:23:56.423Z,1.03
2022-11-25T20:26:34.718Z,0.99
2022-11-25T20:29:01.270Z,0.95
2022-11-25T20:31:30.763Z,0.92
2022-11-25T20:33:57.525Z,0.95
2022-11-25T20:36:29.028Z,0.92
2022-11-25T20:38:56.180Z,0.84
2022-11-25T20:41:27.785Z,0.82
2022-11-25T20:43:55.418Z,0.84
2022-11-25T20:46:24.198Z,0.86
2022-11-25T20:48:55.490Z,0.89
2022-11-25T20:51:22.706Z,0.91
2022-11-25T20:53:50.522Z,0.83
2022-11-25T20:56:18.057Z,0.81
2022-11-25T20:58:45.226Z,0.76
2022-11-25T21:01:11.915Z,0.67
2022-11-25T21:03:38.478Z,0.67
2022-11-25T21:06:13.039Z,0.64
2022-11-25T21:08:39.765Z,0.57
2022-11-25T21:11:06.355Z,0.54
2022-11-25T21:13:32.919Z,0.49
2022-11-25T21:15:59.577Z,0.53
2022-11-25T21:18:26.106Z,0.50
2022-11-25T21:20:54.188Z,0.49
2022-11-25T21:23:26.644Z,0.56
2022-11-25T21:25:53.293Z,0.49
2022-11-25T21:28:25.143Z,0.42
2022-11-25T21:30:51.621Z,0.45
2022-11-25T21:33:18.140Z,0.43
2022-11-25T21:35:46.111Z,0.34
2022-11-25T21:38:17.899Z,0.34
2022-11-25T21:40:45.562Z,0.35
2022-11-25T21:43:28.973Z,0.33
2022-11-25T21:46:00.173Z,0.27
2022-11-25T21:48:27.098Z,0.28
2022-11-25T21:50:54.174Z,0.25
2022-11-25T21:53:20.791Z,0.24
2022-11-25T21:55:47.691Z,0.19
2022-11-25T21:58:25.754Z,0.15
2022-11-25T22:00:56.826Z,0.16
2022-11-25T22:03:24.008Z,0.13
2022-11-25T22:05:50.583Z,0.13
2022-11-25T22:08:17.633Z,0.13
2022-11-25T22:10:49.096Z,0.10
2022-11-25T22:13:17.231Z,0.11
2022-11-25T22:15:44.510Z,0.10
2022-11-25T22:18:18.868Z,0.06
2022-11-25T22:20:49.401Z,0.05
2022-11-25T22:23:19.876Z,0.04
2022-11-25T22:25:46.696Z,0.06
2022-11-25T22:28:17.964Z,0.10
2022-11-25T22:30:48.663Z,0.07
2022-11-25T22:33:15.515Z,0.14
2022-11-25T22:35:42.415Z,0.06
2022-11-25T22:38:16.163Z,-0.03
2022-11-25T22:40:44.187Z,-0.09
2022-11-25T22:43:18.758Z,-0.10
2022-11-25T22:45:46.152Z,-0.09
2022-11-25T22:48:17.974Z,-0.12
2022-11-25T22:50:46.014Z,-0.13
2022-11-25T22:53:13.621Z,-0.13
2022-11-25T22:55:40.216Z,-0.19
2022-11-25T22:58:06.929Z,-0.14
2022-11-25T23:00:34.839Z,-0.17
2022-11-25T23:03:02.812Z,-0.21
2022-11-25T23:05:34.242Z,-0.18
2022-11-25T23:08:01.498Z,-0.22
2022-11-25T23:10:29.416Z,-0.23
2022-11-25T23:12:56.125Z,-0.15
2022-11-25T23:15:24.072Z,-0.21
2022-11-25T23:17:52.054Z,-0.27
2022-11-25T23:20:21.977Z,-0.30
2022-11-25T23:22:48.662Z,-0.31
2022-11-25T23:25:16.653Z,-0.26
2022-11-25T23:27:43.200Z,-0.28
2022-11-25T23:30:10.780Z,-0.32
2022-11-25T23:32:37.341Z,-0.36
2022-11-25T23:35:05.180Z,-0.38
2022-11-25T23:37:32.028Z,-0.35
2022-11-25T23:39:58.538Z,-0.33
2022-11-25T23:42:25.076Z,-0.35
2022-11-25T23:44:51.560Z,-0.39
2022-11-25T23:47:19.823Z,-0.43
2022-11-25T23:49:48.437Z,-0.47
2022-11-25T23:52:18.018Z,-0.47
2022-11-25T23:54:46.090Z,-0.45
2022-11-25T23:57:27.738Z,-0.51
2022-11-25T23:59:54.275Z,-0.54
